sensor_id;sensor_type;location;lat;lon;timestamp;temperature;humidity
16128;DHT22;8168;49.036;7.690;2023-05-07T00:00:49;13.10;99.90
16128;DHT22;8168;49.036;7.690;2023-05-07T00:03:21;13.00;99.90
16128;DHT22;8168;49.036;7.690;2023-05-07T00:05:52;13.00;99.90
16128;DHT22;8168;49.036;7.690;2023-05-07T00:08:25;12.90;99.90
16128;DHT22;8168;49.036;7.690;2023-05-07T00:10:56;12.90;99.90
16128;DHT22;8168;49.036;7.690;2023-05-07T00:13:27;12.90;99.90
16128;DHT22;8168;49.036;7.690;2023-05-07T00:16:03;12.80;99.90
16128;DHT22;8168;49.036;7.690;2023-05-07T00:18:34;12.80;99.90
16128;DHT22;8168;49.036;7.690;2023-05-07T00:21:05;12.80;99.90
16128;DHT22;8168;49.036;7.690;2023-05-07T00:23:35;12.70;99.90
16128;DHT22;8168;49.036;7.690;2023-05-07T00:26:06;12.70;99.90
16128;DHT22;8168;49.036;7.690;2023-05-07T00:28:36;12.70;99.90
16128;DHT22;8168;49.036;7.690;2023-05-07T00:31:07;12.70;99.90
16128;DHT22;8168;49.036;7.690;2023-05-07T00:33:38;12.70;99.90
16128;DHT22;8168;49.036;7.690;2023-05-07T00:36:09;12.70;99.90
16128;DHT22;8168;49.036;7.690;2023-05-07T00:38:40;12.60;99.90
16128;DHT22;8168;49.036;7.690;2023-05-07T00:41:10;12.60;99.90
16128;DHT22;8168;49.036;7.690;2023-05-07T00:43:41;12.60;99.90
16128;DHT22;8168;49.036;7.690;2023-05-07T00:46:13;12.60;99.90
16128;DHT22;8168;49.036;7.690;2023-05-07T00:48:46;12.50;99.90
16128;DHT22;8168;49.036;7.690;2023-05-07T00:51:17;12.50;99.90
16128;DHT22;8168;49.036;7.690;2023-05-07T00:53:48;12.50;99.90
16128;DHT22;8168;49.036;7.690;2023-05-07T00:56:21;12.50;99.90
16128;DHT22;8168;49.036;7.690;2023-05-07T00:58:51;12.50;99.90
16128;DHT22;8168;49.036;7.690;2023-05-07T01:01:22;12.50;99.90
16128;DHT22;8168;49.036;7.690;2023-05-07T01:03:53;12.40;99.90
16128;DHT22;8168;49.036;7.690;2023-05-07T01:06:25;12.40;99.90
16128;DHT22;8168;49.036;7.690;2023-05-07T01:08:58;12.40;99.90
16128;DHT22;8168;49.036;7.690;2023-05-07T01:11:29;12.40;99.90
16128;DHT22;8168;49.036;7.690;2023-05-07T01:14:00;12.30;99.90
16128;DHT22;8168;49.036;7.690;2023-05-07T01:16:30;12.30;99.90
16128;DHT22;8168;49.036;7.690;2023-05-07T01:19:01;12.30;99.90
16128;DHT22;8168;49.036;7.690;2023-05-07T01:21:33;12.30;99.90
16128;DHT22;8168;49.036;7.690;2023-05-07T01:24:05;12.30;99.90
16128;DHT22;8168;49.036;7.690;2023-05-07T01:26:37;12.20;99.90
16128;DHT22;8168;49.036;7.690;2023-05-07T01:29:08;12.20;99.90
16128;DHT22;8168;49.036;7.690;2023-05-07T01:31:40;12.20;99.90
16128;DHT22;8168;49.036;7.690;2023-05-07T01:34:12;12.10;99.90
16128;DHT22;8168;49.036;7.690;2023-05-07T01:36:44;12.10;99.90
16128;DHT22;8168;49.036;7.690;2023-05-07T01:39:15;12.10;99.90
16128;DHT22;8168;49.036;7.690;2023-05-07T01:41:46;12.10;99.90
16128;DHT22;8168;49.036;7.690;2023-05-07T01:44:18;12.00;99.90
16128;DHT22;8168;49.036;7.690;2023-05-07T01:46:49;12.00;99.90
16128;DHT22;8168;49.036;7.690;2023-05-07T01:49:20;11.90;99.90
16128;DHT22;8168;49.036;7.690;2023-05-07T01:51:51;11.90;99.90
16128;DHT22;8168;49.036;7.690;2023-05-07T01:54:27;11.90;99.90
16128;DHT22;8168;49.036;7.690;2023-05-07T01:56:58;11.90;99.90
16128;DHT22;8168;49.036;7.690;2023-05-07T01:59:29;11.80;99.90
16128;DHT22;8168;49.036;7.690;2023-05-07T02:01:59;11.80;99.90
16128;DHT22;8168;49.036;7.690;2023-05-07T02:04:30;11.80;99.90
16128;DHT22;8168;49.036;7.690;2023-05-07T02:07:01;11.80;99.90
16128;DHT22;8168;49.036;7.690;2023-05-07T02:09:32;11.70;99.90
16128;DHT22;8168;49.036;7.690;2023-05-07T02:12:03;11.80;99.90
16128;DHT22;8168;49.036;7.690;2023-05-07T02:14:33;11.70;99.90
16128;DHT22;8168;49.036;7.690;2023-05-07T02:17:04;11.70;99.90
16128;DHT22;8168;49.036;7.690;2023-05-07T02:19:35;11.70;99.90
16128;DHT22;8168;49.036;7.690;2023-05-07T02:22:06;11.70;99.90
16128;DHT22;8168;49.036;7.690;2023-05-07T02:24:37;11.60;99.90
16128;DHT22;8168;49.036;7.690;2023-05-07T02:27:07;11.60;99.90
16128;DHT22;8168;49.036;7.690;2023-05-07T02:29:38;11.60;99.90
16128;DHT22;8168;49.036;7.690;2023-05-07T02:32:09;11.60;99.90
16128;DHT22;8168;49.036;7.690;2023-05-07T02:34:40;11.50;99.90
16128;DHT22;8168;49.036;7.690;2023-05-07T02:37:10;11.50;99.90
16128;DHT22;8168;49.036;7.690;2023-05-07T02:39:41;11.50;99.90
16128;DHT22;8168;49.036;7.690;2023-05-07T02:42:11;11.50;99.90
16128;DHT22;8168;49.036;7.690;2023-05-07T02:44:42;11.50;99.90
16128;DHT22;8168;49.036;7.690;2023-05-07T02:47:14;11.40;99.90
16128;DHT22;8168;49.036;7.690;2023-05-07T02:49:45;11.40;99.90
16128;DHT22;8168;49.036;7.690;2023-05-07T02:52:15;11.40;99.90
16128;DHT22;8168;49.036;7.690;2023-05-07T02:54:46;11.40;99.90
16128;DHT22;8168;49.036;7.690;2023-05-07T02:57:17;11.30;99.90
16128;DHT22;8168;49.036;7.690;2023-05-07T02:59:47;11.30;99.90
16128;DHT22;8168;49.036;7.690;2023-05-07T03:02:18;11.30;99.90
16128;DHT22;8168;49.036;7.690;2023-05-07T03:04:48;11.20;99.90
16128;DHT22;8168;49.036;7.690;2023-05-07T03:07:19;11.20;99.90
16128;DHT22;8168;49.036;7.690;2023-05-07T03:09:50;11.20;99.90
16128;DHT22;8168;49.036;7.690;2023-05-07T03:12:20;11.20;99.90
16128;DHT22;8168;49.036;7.690;2023-05-07T03:14:51;11.20;99.90
16128;DHT22;8168;49.036;7.690;2023-05-07T03:17:22;11.10;99.90
16128;DHT22;8168;49.036;7.690;2023-05-07T03:19:53;11.20;99.90
16128;DHT22;8168;49.036;7.690;2023-05-07T03:22:23;11.10;99.90
16128;DHT22;8168;49.036;7.690;2023-05-07T03:24:54;11.10;99.90
16128;DHT22;8168;49.036;7.690;2023-05-07T03:27:24;11.10;99.90
16128;DHT22;8168;49.036;7.690;2023-05-07T03:29:55;11.10;99.90
16128;DHT22;8168;49.036;7.690;2023-05-07T03:32:25;11.00;99.90
16128;DHT22;8168;49.036;7.690;2023-05-07T03:34:59;11.00;99.90
16128;DHT22;8168;49.036;7.690;2023-05-07T03:37:30;11.00;99.90
16128;DHT22;8168;49.036;7.690;2023-05-07T03:40:00;11.00;99.90
16128;DHT22;8168;49.036;7.690;2023-05-07T03:42:31;11.00;99.90
16128;DHT22;8168;49.036;7.690;2023-05-07T03:45:02;10.90;99.90
16128;DHT22;8168;49.036;7.690;2023-05-07T03:47:32;10.90;99.90
16128;DHT22;8168;49.036;7.690;2023-05-07T03:50:03;10.90;99.90
16128;DHT22;8168;49.036;7.690;2023-05-07T03:52:34;10.90;99.90
16128;DHT22;8168;49.036;7.690;2023-05-07T03:55:05;10.90;99.90
16128;DHT22;8168;49.036;7.690;2023-05-07T03:57:36;10.90;99.90
16128;DHT22;8168;49.036;7.690;2023-05-07T04:00:07;10.90;99.90
16128;DHT22;8168;49.036;7.690;2023-05-07T04:02:38;10.80;99.90
16128;DHT22;8168;49.036;7.690;2023-05-07T04:05:08;10.80;99.90
16128;DHT22;8168;49.036;7.690;2023-05-07T04:07:39;10.80;99.90
16128;DHT22;8168;49.036;7.690;2023-05-07T04:10:10;10.80;99.90
16128;DHT22;8168;49.036;7.690;2023-05-07T04:12:41;10.80;99.90
16128;DHT22;8168;49.036;7.690;2023-05-07T04:15:11;10.70;99.90
16128;DHT22;8168;49.036;7.690;2023-05-07T04:17:42;10.70;99.90
16128;DHT22;8168;49.036;7.690;2023-05-07T04:20:15;10.70;99.90
16128;DHT22;8168;49.036;7.690;2023-05-07T04:22:46;10.70;99.90
16128;DHT22;8168;49.036;7.690;2023-05-07T04:25:17;10.70;99.90
16128;DHT22;8168;49.036;7.690;2023-05-07T04:27:47;10.70;99.90
16128;DHT22;8168;49.036;7.690;2023-05-07T04:30:19;10.70;99.90
16128;DHT22;8168;49.036;7.690;2023-05-07T04:32:50;10.70;99.90
16128;DHT22;8168;49.036;7.690;2023-05-07T04:35:20;10.70;99.90
16128;DHT22;8168;49.036;7.690;2023-05-07T04:37:51;10.70;99.90
16128;DHT22;8168;49.036;7.690;2023-05-07T04:40:22;10.70;99.90
16128;DHT22;8168;49.036;7.690;2023-05-07T04:42:52;10.80;99.90
16128;DHT22;8168;49.036;7.690;2023-05-07T04:45:23;10.80;99.90
16128;DHT22;8168;49.036;7.690;2023-05-07T04:47:54;10.80;99.90
16128;DHT22;8168;49.036;7.690;2023-05-07T04:50:24;10.80;99.90
16128;DHT22;8168;49.036;7.690;2023-05-07T04:52:56;10.80;99.90
16128;DHT22;8168;49.036;7.690;2023-05-07T04:55:26;10.80;99.90
16128;DHT22;8168;49.036;7.690;2023-05-07T04:57:57;10.80;99.90
16128;DHT22;8168;49.036;7.690;2023-05-07T05:00:27;10.80;99.90
16128;DHT22;8168;49.036;7.690;2023-05-07T05:02:58;10.80;99.90
16128;DHT22;8168;49.036;7.690;2023-05-07T05:05:29;10.90;99.90
16128;DHT22;8168;49.036;7.690;2023-05-07T05:07:59;10.90;99.90
16128;DHT22;8168;49.036;7.690;2023-05-07T05:10:30;10.90;99.90
16128;DHT22;8168;49.036;7.690;2023-05-07T05:13:01;10.90;99.90
16128;DHT22;8168;49.036;7.690;2023-05-07T05:15:31;11.00;99.90
16128;DHT22;8168;49.036;7.690;2023-05-07T05:18:02;11.00;99.90
16128;DHT22;8168;49.036;7.690;2023-05-07T05:20:32;11.00;99.90
16128;DHT22;8168;49.036;7.690;2023-05-07T05:23:03;11.00;99.90
16128;DHT22;8168;49.036;7.690;2023-05-07T05:25:34;11.10;99.90
16128;DHT22;8168;49.036;7.690;2023-05-07T05:28:04;11.10;99.90
16128;DHT22;8168;49.036;7.690;2023-05-07T05:30:35;11.20;99.90
16128;DHT22;8168;49.036;7.690;2023-05-07T05:33:06;11.20;99.90
16128;DHT22;8168;49.036;7.690;2023-05-07T05:35:36;11.20;99.90
16128;DHT22;8168;49.036;7.690;2023-05-07T05:38:07;11.20;99.90
16128;DHT22;8168;49.036;7.690;2023-05-07T05:40:38;11.30;99.90
16128;DHT22;8168;49.036;7.690;2023-05-07T05:43:08;11.30;99.90
16128;DHT22;8168;49.036;7.690;2023-05-07T05:45:39;11.40;99.90
16128;DHT22;8168;49.036;7.690;2023-05-07T05:48:10;11.40;99.90
16128;DHT22;8168;49.036;7.690;2023-05-07T05:50:42;11.50;99.90
16128;DHT22;8168;49.036;7.690;2023-05-07T05:53:12;11.50;99.90
16128;DHT22;8168;49.036;7.690;2023-05-07T05:55:43;11.50;99.90
16128;DHT22;8168;49.036;7.690;2023-05-07T05:58:14;11.60;99.90
16128;DHT22;8168;49.036;7.690;2023-05-07T06:00:46;11.70;99.90
16128;DHT22;8168;49.036;7.690;2023-05-07T06:03:17;11.70;99.90
16128;DHT22;8168;49.036;7.690;2023-05-07T06:05:47;11.80;99.90
16128;DHT22;8168;49.036;7.690;2023-05-07T06:08:18;11.80;99.90
16128;DHT22;8168;49.036;7.690;2023-05-07T06:10:49;12.10;99.90
16128;DHT22;8168;49.036;7.690;2023-05-07T06:13:19;11.90;99.90
16128;DHT22;8168;49.036;7.690;2023-05-07T06:15:50;12.00;99.90
16128;DHT22;8168;49.036;7.690;2023-05-07T06:18:21;12.00;99.90
16128;DHT22;8168;49.036;7.690;2023-05-07T06:20:52;12.10;99.90
16128;DHT22;8168;49.036;7.690;2023-05-07T06:23:23;12.20;99.90
16128;DHT22;8168;49.036;7.690;2023-05-07T06:25:53;12.20;99.90
16128;DHT22;8168;49.036;7.690;2023-05-07T06:28:24;12.20;99.90
16128;DHT22;8168;49.036;7.690;2023-05-07T06:30:54;12.30;99.90
16128;DHT22;8168;49.036;7.690;2023-05-07T06:33:25;12.40;99.90
16128;DHT22;8168;49.036;7.690;2023-05-07T06:35:56;12.50;99.90
16128;DHT22;8168;49.036;7.690;2023-05-07T06:38:26;12.60;99.90
16128;DHT22;8168;49.036;7.690;2023-05-07T06:40:57;12.70;99.90
16128;DHT22;8168;49.036;7.690;2023-05-07T06:43:27;12.80;99.90
16128;DHT22;8168;49.036;7.690;2023-05-07T06:45:58;12.80;99.90
16128;DHT22;8168;49.036;7.690;2023-05-07T06:48:29;12.90;99.90
16128;DHT22;8168;49.036;7.690;2023-05-07T06:50:59;13.00;99.90
16128;DHT22;8168;49.036;7.690;2023-05-07T06:53:30;13.10;99.90
16128;DHT22;8168;49.036;7.690;2023-05-07T06:56:01;13.20;99.90
16128;DHT22;8168;49.036;7.690;2023-05-07T06:58:31;13.30;99.90
16128;DHT22;8168;49.036;7.690;2023-05-07T07:01:02;13.40;99.90
16128;DHT22;8168;49.036;7.690;2023-05-07T07:03:33;13.60;99.90
16128;DHT22;8168;49.036;7.690;2023-05-07T07:06:03;13.70;99.90
16128;DHT22;8168;49.036;7.690;2023-05-07T07:08:35;13.80;99.90
16128;DHT22;8168;49.036;7.690;2023-05-07T07:11:06;14.00;99.90
16128;DHT22;8168;49.036;7.690;2023-05-07T07:13:37;14.20;99.90
16128;DHT22;8168;49.036;7.690;2023-05-07T07:16:08;14.40;99.90
16128;DHT22;8168;49.036;7.690;2023-05-07T07:18:38;14.60;99.90
16128;DHT22;8168;49.036;7.690;2023-05-07T07:21:09;14.80;99.90
16128;DHT22;8168;49.036;7.690;2023-05-07T07:23:40;15.00;99.90
16128;DHT22;8168;49.036;7.690;2023-05-07T07:26:10;15.10;99.90
16128;DHT22;8168;49.036;7.690;2023-05-07T07:28:45;15.20;99.90
16128;DHT22;8168;49.036;7.690;2023-05-07T07:31:16;15.40;99.90
16128;DHT22;8168;49.036;7.690;2023-05-07T07:33:46;15.70;99.90
16128;DHT22;8168;49.036;7.690;2023-05-07T07:36:17;15.80;99.90
16128;DHT22;8168;49.036;7.690;2023-05-07T07:38:48;15.90;99.90
16128;DHT22;8168;49.036;7.690;2023-05-07T07:41:18;16.10;99.90
16128;DHT22;8168;49.036;7.690;2023-05-07T07:43:49;14.60;99.90
16128;DHT22;8168;49.036;7.690;2023-05-07T07:46:19;16.30;99.90
16128;DHT22;8168;49.036;7.690;2023-05-07T07:48:50;16.40;99.90
16128;DHT22;8168;49.036;7.690;2023-05-07T07:51:20;16.40;99.90
16128;DHT22;8168;49.036;7.690;2023-05-07T07:53:51;16.50;99.90
16128;DHT22;8168;49.036;7.690;2023-05-07T07:56:22;16.60;99.90
16128;DHT22;8168;49.036;7.690;2023-05-07T07:58:52;16.60;99.90
16128;DHT22;8168;49.036;7.690;2023-05-07T08:01:23;16.70;99.90
16128;DHT22;8168;49.036;7.690;2023-05-07T08:03:53;16.80;99.90
16128;DHT22;8168;49.036;7.690;2023-05-07T08:06:24;17.00;99.90
16128;DHT22;8168;49.036;7.690;2023-05-07T08:08:56;17.10;99.90
16128;DHT22;8168;49.036;7.690;2023-05-07T08:11:27;17.40;99.90
16128;DHT22;8168;49.036;7.690;2023-05-07T08:13:57;17.70;99.90
16128;DHT22;8168;49.036;7.690;2023-05-07T08:16:28;17.80;99.90
16128;DHT22;8168;49.036;7.690;2023-05-07T08:18:59;18.00;99.90
16128;DHT22;8168;49.036;7.690;2023-05-07T08:21:30;18.10;99.90
16128;DHT22;8168;49.036;7.690;2023-05-07T08:24:01;18.20;99.90
16128;DHT22;8168;49.036;7.690;2023-05-07T08:26:32;18.30;99.90
16128;DHT22;8168;49.036;7.690;2023-05-07T08:29:02;18.40;99.90
16128;DHT22;8168;49.036;7.690;2023-05-07T08:31:33;18.40;99.90
16128;DHT22;8168;49.036;7.690;2023-05-07T08:34:04;18.50;99.90
16128;DHT22;8168;49.036;7.690;2023-05-07T08:36:35;18.50;99.90
16128;DHT22;8168;49.036;7.690;2023-05-07T08:39:06;18.60;99.90
16128;DHT22;8168;49.036;7.690;2023-05-07T08:41:36;18.60;99.90
16128;DHT22;8168;49.036;7.690;2023-05-07T08:44:12;18.60;99.90
16128;DHT22;8168;49.036;7.690;2023-05-07T08:46:45;18.80;99.90
16128;DHT22;8168;49.036;7.690;2023-05-07T08:49:18;18.90;99.90
16128;DHT22;8168;49.036;7.690;2023-05-07T08:51:49;19.00;99.90
16128;DHT22;8168;49.036;7.690;2023-05-07T08:54:20;19.20;99.90
16128;DHT22;8168;49.036;7.690;2023-05-07T08:56:51;19.40;99.90
16128;DHT22;8168;49.036;7.690;2023-05-07T08:59:22;19.40;99.90
16128;DHT22;8168;49.036;7.690;2023-05-07T09:01:52;19.60;99.90
16128;DHT22;8168;49.036;7.690;2023-05-07T09:04:23;19.60;99.90
16128;DHT22;8168;49.036;7.690;2023-05-07T09:06:54;19.80;99.90
16128;DHT22;8168;49.036;7.690;2023-05-07T09:09:26;20.10;99.90
16128;DHT22;8168;49.036;7.690;2023-05-07T09:11:57;20.20;99.90
16128;DHT22;8168;49.036;7.690;2023-05-07T09:14:30;20.40;99.90
16128;DHT22;8168;49.036;7.690;2023-05-07T09:17:01;20.50;99.90
16128;DHT22;8168;49.036;7.690;2023-05-07T09:19:32;20.60;99.90
16128;DHT22;8168;49.036;7.690;2023-05-07T09:22:04;20.60;99.90
16128;DHT22;8168;49.036;7.690;2023-05-07T09:24:37;20.70;99.90
16128;DHT22;8168;49.036;7.690;2023-05-07T09:27:08;20.70;99.90
16128;DHT22;8168;49.036;7.690;2023-05-07T09:29:40;20.80;99.90
16128;DHT22;8168;49.036;7.690;2023-05-07T09:32:11;20.80;99.90
16128;DHT22;8168;49.036;7.690;2023-05-07T09:34:42;20.90;99.90
16128;DHT22;8168;49.036;7.690;2023-05-07T09:37:13;20.90;99.90
16128;DHT22;8168;49.036;7.690;2023-05-07T09:39:46;21.00;99.90
16128;DHT22;8168;49.036;7.690;2023-05-07T09:42:26;21.10;99.90
16128;DHT22;8168;49.036;7.690;2023-05-07T09:44:59;21.10;99.90
16128;DHT22;8168;49.036;7.690;2023-05-07T09:47:32;21.20;99.90
16128;DHT22;8168;49.036;7.690;2023-05-07T09:50:05;21.30;99.90
16128;DHT22;8168;49.036;7.690;2023-05-07T09:52:40;21.40;99.90
16128;DHT22;8168;49.036;7.690;2023-05-07T09:55:12;21.40;99.90
16128;DHT22;8168;49.036;7.690;2023-05-07T09:57:43;21.50;99.90
16128;DHT22;8168;49.036;7.690;2023-05-07T10:00:15;21.50;99.90
16128;DHT22;8168;49.036;7.690;2023-05-07T10:02:50;21.60;99.90
16128;DHT22;8168;49.036;7.690;2023-05-07T10:05:22;21.60;99.90
16128;DHT22;8168;49.036;7.690;2023-05-07T10:07:53;21.70;99.90
16128;DHT22;8168;49.036;7.690;2023-05-07T10:10:24;21.80;99.90
16128;DHT22;8168;49.036;7.690;2023-05-07T10:12:55;19.80;99.90
16128;DHT22;8168;49.036;7.690;2023-05-07T10:15:26;22.10;99.90
16128;DHT22;8168;49.036;7.690;2023-05-07T10:17:59;22.20;99.90
16128;DHT22;8168;49.036;7.690;2023-05-07T10:20:30;22.30;99.90
16128;DHT22;8168;49.036;7.690;2023-05-07T10:23:03;22.40;99.90
16128;DHT22;8168;49.036;7.690;2023-05-07T10:25:34;22.60;99.90
16128;DHT22;8168;49.036;7.690;2023-05-07T10:28:07;22.80;99.90
16128;DHT22;8168;49.036;7.690;2023-05-07T10:33:45;22.80;99.90
16128;DHT22;8168;49.036;7.690;2023-05-07T10:36:17;22.60;99.90
16128;DHT22;8168;49.036;7.690;2023-05-07T10:38:49;22.50;99.90
16128;DHT22;8168;49.036;7.690;2023-05-07T10:41:20;22.30;99.90
16128;DHT22;8168;49.036;7.690;2023-05-07T10:43:51;22.20;99.90
16128;DHT22;8168;49.036;7.690;2023-05-07T10:46:22;22.10;99.90
16128;DHT22;8168;49.036;7.690;2023-05-07T10:51:34;22.00;99.90
16128;DHT22;8168;49.036;7.690;2023-05-07T10:56:43;21.90;99.90
16128;DHT22;8168;49.036;7.690;2023-05-07T11:01:59;21.80;99.90
16128;DHT22;8168;49.036;7.690;2023-05-07T11:04:30;21.70;99.90
16128;DHT22;8168;49.036;7.690;2023-05-07T11:15:10;21.80;99.90
16128;DHT22;8168;49.036;7.690;2023-05-07T11:18:02;21.80;99.90
16128;DHT22;8168;49.036;7.690;2023-05-07T11:20:57;21.80;99.90
16128;DHT22;8168;49.036;7.690;2023-05-07T11:26:09;21.70;99.90
16128;DHT22;8168;49.036;7.690;2023-05-07T11:28:42;21.70;99.90
16128;DHT22;8168;49.036;7.690;2023-05-07T11:31:12;21.60;99.90
16128;DHT22;8168;49.036;7.690;2023-05-07T11:33:43;21.60;99.90
16128;DHT22;8168;49.036;7.690;2023-05-07T11:36:15;21.60;99.90
16128;DHT22;8168;49.036;7.690;2023-05-07T11:38:46;21.60;99.90
16128;DHT22;8168;49.036;7.690;2023-05-07T11:41:17;21.70;99.90
16128;DHT22;8168;49.036;7.690;2023-05-07T11:43:59;21.70;99.90
16128;DHT22;8168;49.036;7.690;2023-05-07T11:46:30;21.80;99.90
16128;DHT22;8168;49.036;7.690;2023-05-07T11:49:01;21.90;99.90
16128;DHT22;8168;49.036;7.690;2023-05-07T11:51:31;22.10;99.90
16128;DHT22;8168;49.036;7.690;2023-05-07T11:54:04;20.60;99.90
16128;DHT22;8168;49.036;7.690;2023-05-07T11:56:38;22.20;99.90
16128;DHT22;8168;49.036;7.690;2023-05-07T11:59:09;22.20;99.90
16128;DHT22;8168;49.036;7.690;2023-05-07T12:01:40;22.20;99.90
16128;DHT22;8168;49.036;7.690;2023-05-07T12:04:10;22.20;99.90
16128;DHT22;8168;49.036;7.690;2023-05-07T12:06:41;22.10;99.90
16128;DHT22;8168;49.036;7.690;2023-05-07T12:09:11;22.00;99.90
16128;DHT22;8168;49.036;7.690;2023-05-07T12:11:45;22.00;99.90
16128;DHT22;8168;49.036;7.690;2023-05-07T12:14:16;21.90;99.90
16128;DHT22;8168;49.036;7.690;2023-05-07T12:16:47;21.90;99.90
16128;DHT22;8168;49.036;7.690;2023-05-07T12:19:18;21.80;99.90
16128;DHT22;8168;49.036;7.690;2023-05-07T12:21:48;21.70;99.90
16128;DHT22;8168;49.036;7.690;2023-05-07T12:24:19;21.70;99.90
16128;DHT22;8168;49.036;7.690;2023-05-07T12:26:50;21.60;99.90
16128;DHT22;8168;49.036;7.690;2023-05-07T12:29:21;21.60;99.90
16128;DHT22;8168;49.036;7.690;2023-05-07T12:31:53;21.50;99.90
16128;DHT22;8168;49.036;7.690;2023-05-07T12:34:23;21.50;99.90
16128;DHT22;8168;49.036;7.690;2023-05-07T12:36:55;21.60;99.90
16128;DHT22;8168;49.036;7.690;2023-05-07T12:39:26;21.60;99.90
16128;DHT22;8168;49.036;7.690;2023-05-07T12:41:58;21.70;99.90
16128;DHT22;8168;49.036;7.690;2023-05-07T12:44:30;21.70;99.90
16128;DHT22;8168;49.036;7.690;2023-05-07T12:47:02;21.70;99.90
16128;DHT22;8168;49.036;7.690;2023-05-07T12:49:34;21.70;99.90
16128;DHT22;8168;49.036;7.690;2023-05-07T12:52:08;21.80;99.90
16128;DHT22;8168;49.036;7.690;2023-05-07T12:54:38;21.80;99.90
16128;DHT22;8168;49.036;7.690;2023-05-07T12:57:09;21.80;99.90
16128;DHT22;8168;49.036;7.690;2023-05-07T12:59:41;22.00;99.90
16128;DHT22;8168;49.036;7.690;2023-05-07T13:02:12;22.00;99.90
16128;DHT22;8168;49.036;7.690;2023-05-07T13:04:42;22.10;99.90
16128;DHT22;8168;49.036;7.690;2023-05-07T13:07:13;22.10;99.90
16128;DHT22;8168;49.036;7.690;2023-05-07T13:09:44;22.10;99.90
16128;DHT22;8168;49.036;7.690;2023-05-07T13:12:14;22.10;99.90
16128;DHT22;8168;49.036;7.690;2023-05-07T13:14:45;22.20;99.90
16128;DHT22;8168;49.036;7.690;2023-05-07T13:17:16;22.20;99.90
16128;DHT22;8168;49.036;7.690;2023-05-07T13:19:46;22.10;99.90
16128;DHT22;8168;49.036;7.690;2023-05-07T13:22:17;22.10;99.90
16128;DHT22;8168;49.036;7.690;2023-05-07T13:24:48;22.00;99.90
16128;DHT22;8168;49.036;7.690;2023-05-07T13:27:18;22.00;99.90
16128;DHT22;8168;49.036;7.690;2023-05-07T13:29:49;22.00;99.90
16128;DHT22;8168;49.036;7.690;2023-05-07T13:32:20;22.10;99.90
16128;DHT22;8168;49.036;7.690;2023-05-07T13:34:51;22.10;99.90
16128;DHT22;8168;49.036;7.690;2023-05-07T13:37:21;22.10;99.90
16128;DHT22;8168;49.036;7.690;2023-05-07T13:39:52;22.00;99.90
16128;DHT22;8168;49.036;7.690;2023-05-07T13:42:22;22.00;99.90
16128;DHT22;8168;49.036;7.690;2023-05-07T13:44:53;21.90;99.90
16128;DHT22;8168;49.036;7.690;2023-05-07T13:47:23;21.90;99.90
16128;DHT22;8168;49.036;7.690;2023-05-07T13:49:54;21.70;99.90
16128;DHT22;8168;49.036;7.690;2023-05-07T13:52:25;21.70;99.90
16128;DHT22;8168;49.036;7.690;2023-05-07T13:54:56;21.60;99.90
16128;DHT22;8168;49.036;7.690;2023-05-07T13:57:29;21.50;99.90
16128;DHT22;8168;49.036;7.690;2023-05-07T13:59:59;21.50;99.90
16128;DHT22;8168;49.036;7.690;2023-05-07T14:02:30;21.50;99.90
16128;DHT22;8168;49.036;7.690;2023-05-07T14:05:01;21.60;99.90
16128;DHT22;8168;49.036;7.690;2023-05-07T14:07:31;21.60;99.90
16128;DHT22;8168;49.036;7.690;2023-05-07T14:10:02;21.70;99.90
16128;DHT22;8168;49.036;7.690;2023-05-07T14:12:33;21.80;99.90
16128;DHT22;8168;49.036;7.690;2023-05-07T14:15:04;21.80;99.90
16128;DHT22;8168;49.036;7.690;2023-05-07T14:17:34;21.80;99.90
16128;DHT22;8168;49.036;7.690;2023-05-07T14:20:06;21.80;99.90
16128;DHT22;8168;49.036;7.690;2023-05-07T14:22:37;21.80;99.90
16128;DHT22;8168;49.036;7.690;2023-05-07T14:25:08;21.80;99.90
16128;DHT22;8168;49.036;7.690;2023-05-07T14:27:40;21.80;99.90
16128;DHT22;8168;49.036;7.690;2023-05-07T14:30:11;21.80;99.90
16128;DHT22;8168;49.036;7.690;2023-05-07T14:32:41;21.80;99.90
16128;DHT22;8168;49.036;7.690;2023-05-07T14:35:12;21.70;99.90
16128;DHT22;8168;49.036;7.690;2023-05-07T14:37:43;21.60;99.90
16128;DHT22;8168;49.036;7.690;2023-05-07T14:40:13;21.50;99.90
16128;DHT22;8168;49.036;7.690;2023-05-07T14:42:45;21.50;99.90
16128;DHT22;8168;49.036;7.690;2023-05-07T14:45:15;21.60;99.90
16128;DHT22;8168;49.036;7.690;2023-05-07T14:47:46;21.50;99.90
16128;DHT22;8168;49.036;7.690;2023-05-07T14:50:16;21.40;99.90
16128;DHT22;8168;49.036;7.690;2023-05-07T14:52:48;21.50;99.90
16128;DHT22;8168;49.036;7.690;2023-05-07T14:55:18;21.50;99.90
16128;DHT22;8168;49.036;7.690;2023-05-07T14:57:49;23.20;99.90
16128;DHT22;8168;49.036;7.690;2023-05-07T15:00:20;21.40;99.90
16128;DHT22;8168;49.036;7.690;2023-05-07T15:02:50;21.30;99.90
16128;DHT22;8168;49.036;7.690;2023-05-07T15:05:21;21.30;99.90
16128;DHT22;8168;49.036;7.690;2023-05-07T15:07:51;21.20;99.90
16128;DHT22;8168;49.036;7.690;2023-05-07T15:10:22;21.10;99.90
16128;DHT22;8168;49.036;7.690;2023-05-07T15:12:53;21.10;99.90
16128;DHT22;8168;49.036;7.690;2023-05-07T15:15:23;21.00;99.90
16128;DHT22;8168;49.036;7.690;2023-05-07T15:17:54;21.10;99.90
16128;DHT22;8168;49.036;7.690;2023-05-07T15:20:25;21.00;99.90
16128;DHT22;8168;49.036;7.690;2023-05-07T15:22:56;21.00;99.90
16128;DHT22;8168;49.036;7.690;2023-05-07T15:25:26;21.00;99.90
16128;DHT22;8168;49.036;7.690;2023-05-07T15:27:57;21.00;99.90
16128;DHT22;8168;49.036;7.690;2023-05-07T15:30:28;21.00;99.90
16128;DHT22;8168;49.036;7.690;2023-05-07T15:32:58;20.90;99.90
16128;DHT22;8168;49.036;7.690;2023-05-07T15:35:29;20.70;99.90
16128;DHT22;8168;49.036;7.690;2023-05-07T15:37:59;20.60;99.90
16128;DHT22;8168;49.036;7.690;2023-05-07T15:40:31;20.60;99.90
16128;DHT22;8168;49.036;7.690;2023-05-07T15:43:03;20.60;99.90
16128;DHT22;8168;49.036;7.690;2023-05-07T15:45:41;20.50;99.90
16128;DHT22;8168;49.036;7.690;2023-05-07T15:48:12;20.50;99.90
16128;DHT22;8168;49.036;7.690;2023-05-07T15:50:42;20.50;99.90
16128;DHT22;8168;49.036;7.690;2023-05-07T15:53:13;20.50;99.90
16128;DHT22;8168;49.036;7.690;2023-05-07T15:55:44;20.50;99.90
16128;DHT22;8168;49.036;7.690;2023-05-07T15:58:14;20.50;99.90
16128;DHT22;8168;49.036;7.690;2023-05-07T16:00:46;20.50;99.90
16128;DHT22;8168;49.036;7.690;2023-05-07T16:03:16;20.40;99.90
16128;DHT22;8168;49.036;7.690;2023-05-07T16:05:48;20.30;99.90
16128;DHT22;8168;49.036;7.690;2023-05-07T16:08:18;20.30;99.90
16128;DHT22;8168;49.036;7.690;2023-05-07T16:10:49;20.30;99.90
16128;DHT22;8168;49.036;7.690;2023-05-07T16:13:20;20.30;99.90
16128;DHT22;8168;49.036;7.690;2023-05-07T16:15:57;20.30;99.90
16128;DHT22;8168;49.036;7.690;2023-05-07T16:18:28;20.20;99.90
16128;DHT22;8168;49.036;7.690;2023-05-07T16:20:59;20.20;99.90
16128;DHT22;8168;49.036;7.690;2023-05-07T16:23:30;20.10;99.90
16128;DHT22;8168;49.036;7.690;2023-05-07T16:26:01;20.00;99.90
16128;DHT22;8168;49.036;7.690;2023-05-07T16:28:31;20.10;99.90
16128;DHT22;8168;49.036;7.690;2023-05-07T16:31:02;20.00;99.90